sensor_id;sensor_type;location;lat;lon;timestamp;temperature;humidity
45383;DHT22;42455;51.660;5.824;2023-08-31T00:01:57;14.4;92.5
45383;DHT22;42455;51.660;5.824;2023-08-31T00:07:04;14.4;92.5
45383;DHT22;42455;51.660;5.824;2023-08-31T00:12:10;14.4;93.0
45383;DHT22;42455;51.660;5.824;2023-08-31T00:17:16;14.3;93.0
45383;DHT22;42455;51.660;5.824;2023-08-31T00:22:22;14.3;93.0
45383;DHT22;42455;51.660;5.824;2023-08-31T00:27:28;14.2;93.0
45383;DHT22;42455;51.660;5.824;2023-08-31T00:32:34;14.2;93.0
45383;DHT22;42455;51.660;5.824;2023-08-31T00:37:41;14.2;93.5
45383;DHT22;42455;51.660;5.824;2023-08-31T00:42:47;14.1;93.5
45383;DHT22;42455;51.660;5.824;2023-08-31T00:47:53;14.0;93.5
45383;DHT22;42455;51.660;5.824;2023-08-31T00:53:00;14.0;94.0
45383;DHT22;42455;51.660;5.824;2023-08-31T00:58:06;14.0;94.0
45383;DHT22;42455;51.660;5.824;2023-08-31T01:05:25;13.9;94.0
45383;DHT22;42455;51.660;5.824;2023-08-31T01:12:58;13.9;94.0
45383;DHT22;42455;51.660;5.824;2023-08-31T01:15:41;13.9;94.5
45383;DHT22;42455;51.660;5.824;2023-08-31T01:18:31;13.9;94.5
45383;DHT22;42455;51.660;5.824;2023-08-31T01:23:49;13.9;94.5
45383;DHT22;42455;51.660;5.824;2023-08-31T01:28:43;13.9;94.5
45383;DHT22;42455;51.660;5.824;2023-08-31T01:34:17;13.9;95.0
45383;DHT22;42455;51.660;5.824;2023-08-31T01:39:23;13.9;95.0
45383;DHT22;42455;51.660;5.824;2023-08-31T01:44:02;13.9;95.0
45383;DHT22;42455;51.660;5.824;2023-08-31T01:49:09;13.9;95.5
45383;DHT22;42455;51.660;5.824;2023-08-31T01:54:14;13.9;95.5
45383;DHT22;42455;51.660;5.824;2023-08-31T01:59:20;13.9;95.5
45383;DHT22;42455;51.660;5.824;2023-08-31T02:04:26;14.0;95.5
45383;DHT22;42455;51.660;5.824;2023-08-31T02:09:32;14.0;96.0
45383;DHT22;42455;51.660;5.824;2023-08-31T02:14:39;14.1;96.0
45383;DHT22;42455;51.660;5.824;2023-08-31T02:19:45;14.1;96.0
45383;DHT22;42455;51.660;5.824;2023-08-31T02:24:51;14.1;96.0
45383;DHT22;42455;51.660;5.824;2023-08-31T02:29:57;14.2;96.0
45383;DHT22;42455;51.660;5.824;2023-08-31T02:35:04;14.2;96.0
45383;DHT22;42455;51.660;5.824;2023-08-31T02:40:10;14.2;96.0
45383;DHT22;42455;51.660;5.824;2023-08-31T02:45:16;14.3;96.5
45383;DHT22;42455;51.660;5.824;2023-08-31T02:50:22;14.3;96.5
45383;DHT22;42455;51.660;5.824;2023-08-31T02:55:28;14.3;96.5
45383;DHT22;42455;51.660;5.824;2023-08-31T03:00:35;14.3;96.5
45383;DHT22;42455;51.660;5.824;2023-08-31T03:05:41;14.3;96.5
45383;DHT22;42455;51.660;5.824;2023-08-31T03:10:47;14.3;96.5
45383;DHT22;42455;51.660;5.824;2023-08-31T03:15:53;14.4;96.5
45383;DHT22;42455;51.660;5.824;2023-08-31T03:20:59;14.4;96.5
45383;DHT22;42455;51.660;5.824;2023-08-31T03:26:06;14.4;96.5
45383;DHT22;42455;51.660;5.824;2023-08-31T03:31:12;14.4;96.5
45383;DHT22;42455;51.660;5.824;2023-08-31T03:36:18;14.3;96.5
45383;DHT22;42455;51.660;5.824;2023-08-31T03:41:24;14.3;96.5
45383;DHT22;42455;51.660;5.824;2023-08-31T03:46:31;14.3;96.5
45383;DHT22;42455;51.660;5.824;2023-08-31T03:51:36;14.3;96.5
45383;DHT22;42455;51.660;5.824;2023-08-31T03:56:42;14.3;96.5
45383;DHT22;42455;51.660;5.824;2023-08-31T04:01:48;14.2;96.5
45383;DHT22;42455;51.660;5.824;2023-08-31T04:06:54;14.2;96.5
45383;DHT22;42455;51.660;5.824;2023-08-31T04:12:01;14.2;96.5
45383;DHT22;42455;51.660;5.824;2023-08-31T04:17:07;14.1;96.5
45383;DHT22;42455;51.660;5.824;2023-08-31T04:22:13;14.1;96.5
45383;DHT22;42455;51.660;5.824;2023-08-31T04:27:19;14.0;96.5
45383;DHT22;42455;51.660;5.824;2023-08-31T04:32:26;14.0;96.5
45383;DHT22;42455;51.660;5.824;2023-08-31T04:37:32;13.9;96.5
45383;DHT22;42455;51.660;5.824;2023-08-31T04:42:38;13.9;96.5
45383;DHT22;42455;51.660;5.824;2023-08-31T04:47:44;13.9;97.0
45383;DHT22;42455;51.660;5.824;2023-08-31T04:52:50;13.9;97.0
45383;DHT22;42455;51.660;5.824;2023-08-31T04:57:57;13.8;97.0
45383;DHT22;42455;51.660;5.824;2023-08-31T05:03:03;13.8;97.0
45383;DHT22;42455;51.660;5.824;2023-08-31T05:08:09;13.8;97.0
45383;DHT22;42455;51.660;5.824;2023-08-31T05:13:15;13.8;97.0
45383;DHT22;42455;51.660;5.824;2023-08-31T05:18:21;13.8;97.0
45383;DHT22;42455;51.660;5.824;2023-08-31T05:23:28;13.8;97.0
45383;DHT22;42455;51.660;5.824;2023-08-31T05:28:34;13.8;97.0
45383;DHT22;42455;51.660;5.824;2023-08-31T05:33:40;13.8;97.0
45383;DHT22;42455;51.660;5.824;2023-08-31T05:38:46;13.8;97.0
45383;DHT22;42455;51.660;5.824;2023-08-31T05:43:53;13.9;97.5
45383;DHT22;42455;51.660;5.824;2023-08-31T05:48:59;13.9;97.5
45383;DHT22;42455;51.660;5.824;2023-08-31T05:54:05;14.0;97.5
45383;DHT22;42455;51.660;5.824;2023-08-31T05:59:11;14.0;97.5
45383;DHT22;42455;51.660;5.824;2023-08-31T06:04:17;14.0;97.5
45383;DHT22;42455;51.660;5.824;2023-08-31T06:09:24;14.1;97.5
45383;DHT22;42455;51.660;5.824;2023-08-31T06:14:30;14.2;97.5
45383;DHT22;42455;51.660;5.824;2023-08-31T06:19:36;14.2;97.5
45383;DHT22;42455;51.660;5.824;2023-08-31T06:24:42;14.3;98.0
45383;DHT22;42455;51.660;5.824;2023-08-31T06:29:48;14.4;98.0
45383;DHT22;42455;51.660;5.824;2023-08-31T06:34:55;14.6;98.0
45383;DHT22;42455;51.660;5.824;2023-08-31T06:40:01;14.7;98.0
45383;DHT22;42455;51.660;5.824;2023-08-31T06:45:08;14.9;98.0
45383;DHT22;42455;51.660;5.824;2023-08-31T06:50:13;15.0;98.0
45383;DHT22;42455;51.660;5.824;2023-08-31T06:55:19;15.2;98.0
45383;DHT22;42455;51.660;5.824;2023-08-31T07:00:26;15.4;98.0
45383;DHT22;42455;51.660;5.824;2023-08-31T07:05:34;15.5;97.5
45383;DHT22;42455;51.660;5.824;2023-08-31T07:10:38;15.7;97.5
45383;DHT22;42455;51.660;5.824;2023-08-31T07:15:44;15.9;98.0
45383;DHT22;42455;51.660;5.824;2023-08-31T07:20:51;16.3;98.0
45383;DHT22;42455;51.660;5.824;2023-08-31T07:25:57;16.5;97.0
45383;DHT22;42455;51.660;5.824;2023-08-31T07:31:04;16.7;97.0
45383;DHT22;42455;51.660;5.824;2023-08-31T07:36:09;16.9;97.0
45383;DHT22;42455;51.660;5.824;2023-08-31T07:41:15;17.2;96.5
45383;DHT22;42455;51.660;5.824;2023-08-31T07:46:22;17.4;96.0
45383;DHT22;42455;51.660;5.824;2023-08-31T07:51:28;17.6;95.5
45383;DHT22;42455;51.660;5.824;2023-08-31T07:56:34;17.8;95.5
45383;DHT22;42455;51.660;5.824;2023-08-31T08:01:40;18.0;95.5
45383;DHT22;42455;51.660;5.824;2023-08-31T08:06:49;18.3;95.5
45383;DHT22;42455;51.660;5.824;2023-08-31T08:11:53;18.6;95.0
45383;DHT22;42455;51.660;5.824;2023-08-31T08:16:59;18.9;94.5
45383;DHT22;42455;51.660;5.824;2023-08-31T08:22:05;19.2;94.0
45383;DHT22;42455;51.660;5.824;2023-08-31T08:27:11;19.4;93.5
45383;DHT22;42455;51.660;5.824;2023-08-31T08:32:17;19.6;93.0
45383;DHT22;42455;51.660;5.824;2023-08-31T08:37:24;19.8;93.0
45383;DHT22;42455;51.660;5.824;2023-08-31T08:42:30;20.0;92.5
45383;DHT22;42455;51.660;5.824;2023-08-31T08:47:36;20.2;92.0
45383;DHT22;42455;51.660;5.824;2023-08-31T08:52:43;20.4;91.5
45383;DHT22;42455;51.660;5.824;2023-08-31T08:57:48;20.6;90.5
45383;DHT22;42455;51.660;5.824;2023-08-31T09:02:55;20.8;90.0
45383;DHT22;42455;51.660;5.824;2023-08-31T09:08:11;20.9;90.0
45383;DHT22;42455;51.660;5.824;2023-08-31T09:13:08;21.0;88.5
45383;DHT22;42455;51.660;5.824;2023-08-31T09:18:15;21.1;88.0
45383;DHT22;42455;51.660;5.824;2023-08-31T09:23:19;21.2;87.5
45383;DHT22;42455;51.660;5.824;2023-08-31T09:28:26;21.3;87.0
45383;DHT22;42455;51.660;5.824;2023-08-31T09:33:31;21.4;86.5
45383;DHT22;42455;51.660;5.824;2023-08-31T09:38:41;21.5;86.0
45383;DHT22;42455;51.660;5.824;2023-08-31T09:43:43;21.7;86.0
45383;DHT22;42455;51.660;5.824;2023-08-31T09:48:50;21.8;85.0
45383;DHT22;42455;51.660;5.824;2023-08-31T09:53:57;21.9;83.5
45383;DHT22;42455;51.660;5.824;2023-08-31T09:59:01;22.0;83.0
45383;DHT22;42455;51.660;5.824;2023-08-31T10:04:08;22.2;82.0
45383;DHT22;42455;51.660;5.824;2023-08-31T10:09:14;22.2;81.0
45383;DHT22;42455;51.660;5.824;2023-08-31T10:14:20;22.1;80.0
45383;DHT22;42455;51.660;5.824;2023-08-31T10:19:26;22.0;80.0
45383;DHT22;42455;51.660;5.824;2023-08-31T10:24:59;21.9;79.5
45383;DHT22;42455;51.660;5.824;2023-08-31T10:29:38;21.7;79.5
45383;DHT22;42455;51.660;5.824;2023-08-31T10:35:04;21.6;79.5
45383;DHT22;42455;51.660;5.824;2023-08-31T10:40:06;21.6;80.5
45383;DHT22;42455;51.660;5.824;2023-08-31T10:45:06;21.7;80.5
45383;DHT22;42455;51.660;5.824;2023-08-31T10:50:15;21.9;80.5
45383;DHT22;42455;51.660;5.824;2023-08-31T10:55:09;22.1;81.0
45383;DHT22;42455;51.660;5.824;2023-08-31T11:00:52;22.3;80.5
45383;DHT22;42455;51.660;5.824;2023-08-31T11:05:22;22.4;79.5
45383;DHT22;42455;51.660;5.824;2023-08-31T11:10:28;22.6;79.0
45383;DHT22;42455;51.660;5.824;2023-08-31T11:15:34;22.8;79.0
45383;DHT22;42455;51.660;5.824;2023-08-31T11:20:40;23.0;77.0
45383;DHT22;42455;51.660;5.824;2023-08-31T11:25:47;23.2;76.0
45383;DHT22;42455;51.660;5.824;2023-08-31T11:30:53;23.3;75.5
45383;DHT22;42455;51.660;5.824;2023-08-31T11:35:59;23.3;74.5
45383;DHT22;42455;51.660;5.824;2023-08-31T11:41:06;23.2;74.5
45383;DHT22;42455;51.660;5.824;2023-08-31T11:46:11;23.1;74.0
45383;DHT22;42455;51.660;5.824;2023-08-31T11:51:18;22.9;74.5
45383;DHT22;42455;51.660;5.824;2023-08-31T11:56:24;22.7;75.5
45383;DHT22;42455;51.660;5.824;2023-08-31T12:01:30;22.3;75.5
45383;DHT22;42455;51.660;5.824;2023-08-31T12:06:36;21.9;76.5
45383;DHT22;42455;51.660;5.824;2023-08-31T12:11:48;21.4;77.5
45383;DHT22;42455;51.660;5.824;2023-08-31T12:16:50;21.2;78.5
45383;DHT22;42455;51.660;5.824;2023-08-31T12:21:55;21.0;80.0
45383;DHT22;42455;51.660;5.824;2023-08-31T12:27:01;20.8;80.5
45383;DHT22;42455;51.660;5.824;2023-08-31T12:32:07;20.6;81.0
45383;DHT22;42455;51.660;5.824;2023-08-31T12:37:13;20.3;81.5
45383;DHT22;42455;51.660;5.824;2023-08-31T12:42:20;20.0;83.0
45383;DHT22;42455;51.660;5.824;2023-08-31T12:47:26;19.8;84.5
45383;DHT22;42455;51.660;5.824;2023-08-31T12:52:32;19.7;85.0
45383;DHT22;42455;51.660;5.824;2023-08-31T12:57:38;19.6;86.0
45383;DHT22;42455;51.660;5.824;2023-08-31T13:02:45;19.5;87.0
45383;DHT22;42455;51.660;5.824;2023-08-31T13:07:51;19.5;87.5
45383;DHT22;42455;51.660;5.824;2023-08-31T13:12:57;19.5;88.5
45383;DHT22;42455;51.660;5.824;2023-08-31T13:18:03;19.6;89.0
45383;DHT22;42455;51.660;5.824;2023-08-31T13:23:09;19.7;89.5
45383;DHT22;42455;51.660;5.824;2023-08-31T13:28:16;19.7;90.0
45383;DHT22;42455;51.660;5.824;2023-08-31T13:33:22;19.8;90.0
45383;DHT22;42455;51.660;5.824;2023-08-31T13:38:28;19.9;90.5
45383;DHT22;42455;51.660;5.824;2023-08-31T13:43:34;20.1;91.0
45383;DHT22;42455;51.660;5.824;2023-08-31T13:48:40;20.4;91.0
45383;DHT22;42455;51.660;5.824;2023-08-31T13:53:47;20.6;90.5
45383;DHT22;42455;51.660;5.824;2023-08-31T13:58:53;20.6;89.5
45383;DHT22;42455;51.660;5.824;2023-08-31T14:04:00;20.5;89.0
45383;DHT22;42455;51.660;5.824;2023-08-31T14:09:05;20.5;89.0
45383;DHT22;42455;51.660;5.824;2023-08-31T14:14:11;20.4;88.5
45383;DHT22;42455;51.660;5.824;2023-08-31T14:19:18;20.3;89.0
45383;DHT22;42455;51.660;5.824;2023-08-31T14:24:24;20.3;88.5
45383;DHT22;42455;51.660;5.824;2023-08-31T14:29:30;20.4;89.0
45383;DHT22;42455;51.660;5.824;2023-08-31T14:34:36;20.6;89.5
45383;DHT22;42455;51.660;5.824;2023-08-31T14:39:42;20.9;89.0
45383;DHT22;42455;51.660;5.824;2023-08-31T14:44:49;21.2;88.0
45383;DHT22;42455;51.660;5.824;2023-08-31T14:49:55;21.5;87.5
45383;DHT22;42455;51.660;5.824;2023-08-31T14:55:01;21.8;87.0
45383;DHT22;42455;51.660;5.824;2023-08-31T15:00:08;22.0;85.0
45383;DHT22;42455;51.660;5.824;2023-08-31T15:05:14;22.1;83.5
45383;DHT22;42455;51.660;5.824;2023-08-31T15:10:20;22.1;83.0
45383;DHT22;42455;51.660;5.824;2023-08-31T15:15:26;22.1;82.5
45383;DHT22;42455;51.660;5.824;2023-08-31T15:20:32;22.0;82.0
45383;DHT22;42455;51.660;5.824;2023-08-31T15:25:37;22.0;82.0
45383;DHT22;42455;51.660;5.824;2023-08-31T15:30:44;22.0;82.0
45383;DHT22;42455;51.660;5.824;2023-08-31T15:35:50;22.0;82.0
45383;DHT22;42455;51.660;5.824;2023-08-31T15:40:56;22.1;82.0
45383;DHT22;42455;51.660;5.824;2023-08-31T15:46:03;22.1;81.5
45383;DHT22;42455;51.660;5.824;2023-08-31T15:51:09;22.1;80.5
45383;DHT22;42455;51.660;5.824;2023-08-31T15:56:15;22.0;80.5
45383;DHT22;42455;51.660;5.824;2023-08-31T16:01:21;21.9;80.5
45383;DHT22;42455;51.660;5.824;2023-08-31T16:06:27;21.8;80.5
45383;DHT22;42455;51.660;5.824;2023-08-31T16:11:33;21.8;80.5
45383;DHT22;42455;51.660;5.824;2023-08-31T16:16:39;21.8;81.0
45383;DHT22;42455;51.660;5.824;2023-08-31T16:21:46;21.8;81.0
45383;DHT22;42455;51.660;5.824;2023-08-31T16:26:52;21.8;81.0
45383;DHT22;42455;51.660;5.824;2023-08-31T16:31:58;21.7;81.0
45383;DHT22;42455;51.660;5.824;2023-08-31T16:37:04;21.7;81.0
45383;DHT22;42455;51.660;5.824;2023-08-31T16:42:11;21.6;81.0
45383;DHT22;42455;51.660;5.824;2023-08-31T16:47:17;21.5;81.0
45383;DHT22;42455;51.660;5.824;2023-08-31T16:52:23;21.3;81.5
45383;DHT22;42455;51.660;5.824;2023-08-31T16:57:29;21.2;81.5
45383;DHT22;42455;51.660;5.824;2023-08-31T17:02:35;21.1;82.0
45383;DHT22;42455;51.660;5.824;2023-08-31T17:07:42;21.1;82.5
45383;DHT22;42455;51.660;5.824;2023-08-31T17:12:48;21.0;83.0
45383;DHT22;42455;51.660;5.824;2023-08-31T17:17:54;20.9;83.0
45383;DHT22;42455;51.660;5.824;2023-08-31T17:23:00;20.9;83.0
45383;DHT22;42455;51.660;5.824;2023-08-31T17:28:06;20.8;83.5
45383;DHT22;42455;51.660;5.824;2023-08-31T17:33:13;20.7;83.5
45383;DHT22;42455;51.660;5.824;2023-08-31T17:38:19;20.7;83.5
45383;DHT22;42455;51.660;5.824;2023-08-31T17:43:25;20.6;83.5
45383;DHT22;42455;51.660;5.824;2023-08-31T17:48:32;20.6;84.0
45383;DHT22;42455;51.660;5.824;2023-08-31T17:53:37;20.5;84.5
45383;DHT22;42455;51.660;5.824;2023-08-31T17:58:44;20.5;84.5
45383;DHT22;42455;51.660;5.824;2023-08-31T18:03:50;20.4;84.5
45383;DHT22;42455;51.660;5.824;2023-08-31T18:08:56;20.3;85.0
45383;DHT22;42455;51.660;5.824;2023-08-31T18:14:02;20.3;85.0
45383;DHT22;42455;51.660;5.824;2023-08-31T18:19:08;20.2;85.0
45383;DHT22;42455;51.660;5.824;2023-08-31T18:24:15;20.1;85.0
45383;DHT22;42455;51.660;5.824;2023-08-31T18:29:21;20.0;85.5
45383;DHT22;42455;51.660;5.824;2023-08-31T18:34:28;19.9;85.5
45383;DHT22;42455;51.660;5.824;2023-08-31T18:39:33;19.8;86.0
45383;DHT22;42455;51.660;5.824;2023-08-31T18:44:40;19.7;86.0
45383;DHT22;42455;51.660;5.824;2023-08-31T18:49:47;19.6;86.5
45383;DHT22;42455;51.660;5.824;2023-08-31T18:54:52;19.5;86.5
45383;DHT22;42455;51.660;5.824;2023-08-31T18:59:58;19.4;87.0
45383;DHT22;42455;51.660;5.824;2023-08-31T19:05:04;19.4;87.5
45383;DHT22;42455;51.660;5.824;2023-08-31T19:10:11;19.3;87.5
45383;DHT22;42455;51.660;5.824;2023-08-31T19:15:17;19.2;88.0
45383;DHT22;42455;51.660;5.824;2023-08-31T19:20:23;19.1;88.0
45383;DHT22;42455;51.660;5.824;2023-08-31T19:25:29;19.0;88.5
45383;DHT22;42455;51.660;5.824;2023-08-31T19:30:36;18.9;88.5
45383;DHT22;42455;51.660;5.824;2023-08-31T19:35:42;18.9;89.0
45383;DHT22;42455;51.660;5.824;2023-08-31T19:40:48;18.8;89.0
45383;DHT22;42455;51.660;5.824;2023-08-31T19:45:54;18.7;89.0
45383;DHT22;42455;51.660;5.824;2023-08-31T19:51:03;18.6;89.5
45383;DHT22;42455;51.660;5.824;2023-08-31T19:56:06;18.5;89.5
45383;DHT22;42455;51.660;5.824;2023-08-31T20:01:13;18.4;89.5
45383;DHT22;42455;51.660;5.824;2023-08-31T20:06:19;18.3;90.0
45383;DHT22;42455;51.660;5.824;2023-08-31T20:11:25;18.2;90.0
45383;DHT22;42455;51.660;5.824;2023-08-31T20:16:32;18.1;90.0
45383;DHT22;42455;51.660;5.824;2023-08-31T20:21:38;18.0;90.5
45383;DHT22;42455;51.660;5.824;2023-08-31T20:26:44;18.0;90.5
45383;DHT22;42455;51.660;5.824;2023-08-31T20:31:50;17.9;90.5
45383;DHT22;42455;51.660;5.824;2023-08-31T20:36:56;17.8;90.5
45383;DHT22;42455;51.660;5.824;2023-08-31T20:42:03;17.8;91.0
45383;DHT22;42455;51.660;5.824;2023-08-31T20:47:09;17.7;91.0
45383;DHT22;42455;51.660;5.824;2023-08-31T20:52:15;17.6;91.0
45383;DHT22;42455;51.660;5.824;2023-08-31T20:57:20;17.6;91.0
45383;DHT22;42455;51.660;5.824;2023-08-31T21:02:26;17.5;91.0
45383;DHT22;42455;51.660;5.824;2023-08-31T21:07:33;17.4;91.0
45383;DHT22;42455;51.660;5.824;2023-08-31T21:12:39;17.4;91.0
45383;DHT22;42455;51.660;5.824;2023-08-31T21:17:45;17.3;91.0
45383;DHT22;42455;51.660;5.824;2023-08-31T21:22:51;17.2;91.5
45383;DHT22;42455;51.660;5.824;2023-08-31T21:27:57;17.2;91.5
45383;DHT22;42455;51.660;5.824;2023-08-31T21:33:04;17.1;91.5
45383;DHT22;42455;51.660;5.824;2023-08-31T21:38:10;17.0;91.5
45383;DHT22;42455;51.660;5.824;2023-08-31T21:43:16;17.0;91.5
45383;DHT22;42455;51.660;5.824;2023-08-31T21:48:22;16.9;91.5
45383;DHT22;42455;51.660;5.824;2023-08-31T21:53:28;16.9;92.0
45383;DHT22;42455;51.660;5.824;2023-08-31T21:58:35;16.8;92.0
45383;DHT22;42455;51.660;5.824;2023-08-31T22:03:41;16.8;92.0
45383;DHT22;42455;51.660;5.824;2023-08-31T22:08:47;16.7;92.0
45383;DHT22;42455;51.660;5.824;2023-08-31T22:13:53;16.7;92.0
45383;DHT22;42455;51.660;5.824;2023-08-31T22:18:59;16.6;92.0
45383;DHT22;42455;51.660;5.824;2023-08-31T22:24:06;16.6;92.0
45383;DHT22;42455;51.660;5.824;2023-08-31T22:29:12;16.5;92.0
45383;DHT22;42455;51.660;5.824;2023-08-31T22:34:18;16.5;92.0
45383;DHT22;42455;51.660;5.824;2023-08-31T22:39:24;16.4;92.5
45383;DHT22;42455;51.660;5.824;2023-08-31T22:44:30;16.4;92.5
45383;DHT22;42455;51.660;5.824;2023-08-31T22:49:37;16.4;92.5
45383;DHT22;42455;51.660;5.824;2023-08-31T22:54:43;16.3;92.5
45383;DHT22;42455;51.660;5.824;2023-08-31T22:59:49;16.3;93.0
45383;DHT22;42455;51.660;5.824;2023-08-31T23:04:55;16.3;93.0
45383;DHT22;42455;51.660;5.824;2023-08-31T23:10:01;16.2;93.0
45383;DHT22;42455;51.660;5.824;2023-08-31T23:15:08;16.2;93.0
45383;DHT22;42455;51.660;5.824;2023-08-31T23:20:14;16.2;93.0
45383;DHT22;42455;51.660;5.824;2023-08-31T23:25:20;16.2;93.0
45383;DHT22;42455;51.660;5.824;2023-08-31T23:30:26;16.1;93.0
45383;DHT22;42455;51.660;5.824;2023-08-31T23:35:32;16.1;93.0
45383;DHT22;42455;51.660;5.824;2023-08-31T23:40:39;16.0;93.0
45383;DHT22;42455;51.660;5.824;2023-08-31T23:45:45;16.0;93.0
45383;DHT22;42455;51.660;5.824;2023-08-31T23:50:52;15.9;93.0
45383;DHT22;42455;51.660;5.824;2023-08-31T23:56:01;15.9;93.5
